Pagina principală
METAR-TAF:

METAR-TAF

Aeroporturi :

Cochabamba, Bolivia

Latitudine: 17-25S, longitudine: 066-11W, elevație: 2548 m

Observații meteo curente

Raportul a fost făcut în urmă cu 1 oră și 2 de minute, la 09:00 UTC
Vânt calm
Temperatură 6°C
Umiditate 70%
Presiune 1022 hPa
Vizibilitate de 10 km sau mai mult

METAR: SLCB 140900Z 00000KT 9999 NSC 06/01 Q1022

Ora: 06:02 (10:02 UTC)

Prognoză

Raportul a fost făcut în urmă cu 6 ore și 2 de minute, la 04:00 UTC
Prognoză valabilă de la 14 ora 06 UTC la 15 ora 06 UTC
Vânt kt de la Nord
Vizibilitate de 10 km sau mai mult
Temporar
de la 14 ora 19 UTC la 14 ora 21 UTC
Vânt 10 kt de la Nord-vest

TAF: SLCB 140400Z 1406/1506 00000KT 9999 NSC TX29/1419Z TN04/1410Z TEMPO 1419/1421 32010KT

Observații și prognoze meteo pentru peste 4.000 de aeroporturi (rapoarte METAR și TAF).

Stațiile disponibile sunt reprezentate pe hartă prin puncte galbene și roșii.

Țineți indicatorul mouse-ului pe punctul dorit pentru a vedea denumirea stației.

Apoi, faceți clic pentru a vedea observațiile și prognozele meteorologice.

Pentru a schimba harta: Pentru mărire, faceți clic pe butoanele verzi cu cruce neagră; pentru micșorare, pe butonul verde cu o liniuță; pentru hărți învecinate, pe săgețile verzi.


METAR-TAF: